createdAt,value
2019-01-13T00:02:15.173Z,31.17
2019-01-13T00:04:43.566Z,35.07
2019-01-13T00:07:11.920Z,39.20
2019-01-13T00:09:40.310Z,37.07
2019-01-13T00:12:08.674Z,43.47
2019-01-13T00:14:36.956Z,43.20
2019-01-13T00:17:05.362Z,52.50
2019-01-13T00:19:33.651Z,47.53
2019-01-13T00:22:01.969Z,46.07
2019-01-13T00:24:30.338Z,46.30
2019-01-13T00:26:58.670Z,43.90
2019-01-13T00:29:26.972Z,47.10
2019-01-13T00:31:55.663Z,45.73
2019-01-13T00:34:24.050Z,49.97
2019-01-13T00:36:52.413Z,52.77
2019-01-13T00:39:20.821Z,50.70
2019-01-13T00:41:49.119Z,52.90
2019-01-13T00:44:17.407Z,52.57
2019-01-13T00:46:45.797Z,49.80
2019-01-13T00:49:14.180Z,49.73
2019-01-13T00:51:42.573Z,44.90
2019-01-13T00:54:10.946Z,47.77
2019-01-13T00:56:39.348Z,47.73
2019-01-13T00:59:07.720Z,50.00
2019-01-13T01:01:36.094Z,48.50
2019-01-13T01:04:23.897Z,48.50
2019-01-13T01:06:52.204Z,45.73
2019-01-13T01:09:20.604Z,49.27
2019-01-13T01:11:48.902Z,50.03
2019-01-13T01:14:17.273Z,54.67
2019-01-13T01:16:45.673Z,52.33
2019-01-13T01:19:14.048Z,60.90
2019-01-13T01:21:42.449Z,59.43
2019-01-13T01:24:10.754Z,59.83
2019-01-13T01:26:39.136Z,57.27
2019-01-13T01:29:07.500Z,56.40
2019-01-13T01:31:35.806Z,55.73
2019-01-13T01:34:04.187Z,60.80
2019-01-13T01:36:32.485Z,59.27
2019-01-13T01:39:01.241Z,60.33
2019-01-13T01:41:29.575Z,53.37
2019-01-13T01:43:57.903Z,64.10
2019-01-13T01:46:26.227Z,50.47
2019-01-13T01:48:54.591Z,48.57
2019-01-13T01:51:22.912Z,45.57
2019-01-13T01:53:51.286Z,40.03
2019-01-13T01:56:19.589Z,36.60
2019-01-13T01:58:47.906Z,41.77
2019-01-13T02:01:16.274Z,38.57
2019-01-13T02:03:44.610Z,39.77
2019-01-13T02:06:12.967Z,41.30
2019-01-13T02:08:41.336Z,42.80
2019-01-13T02:11:09.708Z,39.47
2019-01-13T02:13:38.076Z,38.10
2019-01-13T02:16:06.471Z,36.73
2019-01-13T02:18:34.834Z,34.77
2019-01-13T02:21:03.204Z,39.77
2019-01-13T02:23:31.591Z,41.67
2019-01-13T02:25:59.962Z,43.33
2019-01-13T02:28:28.642Z,39.30
2019-01-13T02:30:56.953Z,32.87
2019-01-13T02:33:25.348Z,51.13
2019-01-13T02:35:53.718Z,45.90
2019-01-13T02:38:22.071Z,39.53
2019-01-13T02:40:50.381Z,47.43
2019-01-13T02:43:18.688Z,45.83
2019-01-13T02:45:47.079Z,46.90
2019-01-13T02:48:15.392Z,44.10
2019-01-13T02:50:43.755Z,49.23
2019-01-13T02:53:12.126Z,61.30
2019-01-13T02:55:40.509Z,53.50
2019-01-13T02:58:08.920Z,45.17
2019-01-13T03:00:37.280Z,37.80
2019-01-13T03:03:05.588Z,45.60
2019-01-13T03:05:33.969Z,38.93
2019-01-13T03:08:02.346Z,46.77
2019-01-13T03:10:30.745Z,46.97
2019-01-13T03:12:59.123Z,50.33
2019-01-13T03:15:27.494Z,51.73
2019-01-13T03:17:55.879Z,42.10
2019-01-13T03:20:24.262Z,40.20
2019-01-13T03:22:52.661Z,41.90
2019-01-13T03:25:21.471Z,47.57
2019-01-13T03:27:49.855Z,51.67
2019-01-13T03:30:21.494Z,50.80
2019-01-13T03:32:49.865Z,48.17
2019-01-13T03:35:18.269Z,49.70
2019-01-13T03:37:46.709Z,49.97
2019-01-13T03:40:19.955Z,47.23
2019-01-13T03:42:48.509Z,52.33
2019-01-13T03:45:16.863Z,58.93
2019-01-13T03:47:45.194Z,50.90
2019-01-13T03:50:15.921Z,55.93
2019-01-13T03:52:52.428Z,56.20
2019-01-13T03:55:15.317Z,58.30
2019-01-13T03:57:43.698Z,58.70
2019-01-13T04:00:17.950Z,50.13
2019-01-13T04:02:46.315Z,55.90
2019-01-13T04:05:14.712Z,56.50
2019-01-13T04:07:43.085Z,47.40
2019-01-13T04:10:13.777Z,53.03
2019-01-13T04:12:42.156Z,46.20
2019-01-13T04:15:13.722Z,41.93
2019-01-13T04:17:42.106Z,38.97
2019-01-13T04:20:10.810Z,32.70
2019-01-13T04:22:39.208Z,34.00
2019-01-13T04:25:07.492Z,30.20
2019-01-13T04:27:36.234Z,26.10
2019-01-13T04:30:07.806Z,25.03
2019-01-13T04:32:36.167Z,40.93
2019-01-13T04:35:07.014Z,26.83
2019-01-13T04:37:35.363Z,25.10
2019-01-13T04:40:06.630Z,26.53
2019-01-13T04:42:35.018Z,25.70
2019-01-13T04:45:04.602Z,18.23
2019-01-13T04:47:33.000Z,18.20
2019-01-13T04:50:01.296Z,30.00
2019-01-13T04:52:29.648Z,20.63
2019-01-13T04:54:57.955Z,21.57
2019-01-13T04:57:26.234Z,23.03
2019-01-13T04:59:54.553Z,22.13
2019-01-13T05:02:22.911Z,22.57
2019-01-13T05:04:51.499Z,26.10
2019-01-13T05:07:19.873Z,19.57
2019-01-13T05:09:48.187Z,23.80
2019-01-13T05:12:16.540Z,23.20
2019-01-13T05:14:44.865Z,23.70
2019-01-13T05:17:13.230Z,23.40
2019-01-13T05:19:41.541Z,19.73
2019-01-13T05:22:09.827Z,16.57
2019-01-13T05:24:38.226Z,21.53
2019-01-13T05:27:06.511Z,16.40
2019-01-13T05:29:34.883Z,19.37
2019-01-13T05:32:03.253Z,19.33
2019-01-13T05:34:31.603Z,20.83
2019-01-13T05:36:59.995Z,16.63
2019-01-13T05:39:28.317Z,10.43
2019-01-13T05:41:56.635Z,19.33
2019-01-13T05:44:25.012Z,16.77
2019-01-13T05:46:53.387Z,15.23
2019-01-13T05:49:21.763Z,15.27
2019-01-13T05:51:50.136Z,14.33
2019-01-13T05:54:18.515Z,17.77
2019-01-13T05:56:46.903Z,18.30
2019-01-13T05:59:15.274Z,19.97
2019-01-13T06:01:49.201Z,18.67
2019-01-13T06:04:13.667Z,17.00
2019-01-13T06:08:22.345Z,17.97
2019-01-13T06:10:50.733Z,23.47
2019-01-13T06:13:20.376Z,15.63
2019-01-13T06:15:48.692Z,13.40
2019-01-13T06:18:17.058Z,14.80
2019-01-13T06:20:45.429Z,10.63
2019-01-13T06:23:13.796Z,9.70
2019-01-13T06:25:42.186Z,23.10
2019-01-13T06:28:10.552Z,15.30
2019-01-13T06:30:38.927Z,13.87
2019-01-13T06:33:07.379Z,15.30
2019-01-13T06:35:35.747Z,14.07
2019-01-13T06:38:04.095Z,13.33
2019-01-13T06:40:32.473Z,9.63
2019-01-13T06:43:00.932Z,20.40
2019-01-13T06:45:29.296Z,17.70
2019-01-13T06:47:57.656Z,21.90
2019-01-13T06:50:26.046Z,12.90
2019-01-13T06:52:54.346Z,16.03
2019-01-13T06:55:23.107Z,16.57
2019-01-13T06:57:51.391Z,17.67
2019-01-13T07:00:22.417Z,15.60
2019-01-13T07:02:50.743Z,12.63
2019-01-13T07:05:19.173Z,18.37
2019-01-13T07:07:47.556Z,17.70
2019-01-13T07:10:15.970Z,15.60
2019-01-13T07:12:44.292Z,11.80
2019-01-13T07:15:15.118Z,12.33
2019-01-13T07:17:43.565Z,17.10
2019-01-13T07:20:14.543Z,9.30
2019-01-13T07:22:43.073Z,16.00
2019-01-13T07:25:11.618Z,13.77
2019-01-13T07:27:39.971Z,10.80
2019-01-13T07:30:19.693Z,13.43
2019-01-13T07:32:48.087Z,11.30
2019-01-13T07:35:16.768Z,12.20
2019-01-13T07:37:45.156Z,16.33
2019-01-13T07:40:15.774Z,13.37
2019-01-13T07:42:44.128Z,15.07
2019-01-13T07:45:15.316Z,14.57
2019-01-13T07:47:43.674Z,8.33
2019-01-13T07:50:14.407Z,14.00
2019-01-13T07:52:42.929Z,17.23
2019-01-13T07:55:14.299Z,13.97
2019-01-13T07:57:42.674Z,13.77
2019-01-13T08:00:23.162Z,14.47
2019-01-13T08:02:51.543Z,17.97
2019-01-13T08:05:19.906Z,18.17
2019-01-13T08:07:48.317Z,16.30
2019-01-13T08:10:17.061Z,17.93
2019-01-13T08:12:45.474Z,18.13
2019-01-13T08:15:16.722Z,20.17
2019-01-13T08:17:45.085Z,10.90
2019-01-13T08:20:19.661Z,10.80
2019-01-13T08:22:47.998Z,15.23
2019-01-13T08:25:16.324Z,13.53
2019-01-13T08:27:44.713Z,11.50
2019-01-13T08:30:16.057Z,10.63
2019-01-13T08:32:44.454Z,17.87
2019-01-13T08:35:12.853Z,9.87
2019-01-13T08:37:41.381Z,14.80
2019-01-13T08:40:13.024Z,12.10
2019-01-13T08:42:41.388Z,9.20
2019-01-13T08:45:11.111Z,10.33
2019-01-13T08:47:39.792Z,15.23
2019-01-13T08:50:14.197Z,13.00
2019-01-13T08:52:42.582Z,17.73
2019-01-13T08:55:10.953Z,14.50
2019-01-13T08:57:39.341Z,19.60
2019-01-13T09:00:10.970Z,15.23
2019-01-13T09:02:39.373Z,10.20
2019-01-13T09:05:07.747Z,8.47
2019-01-13T09:07:36.137Z,14.47
2019-01-13T09:10:07.734Z,11.50
2019-01-13T09:12:36.068Z,16.37
2019-01-13T09:15:08.710Z,11.90
2019-01-13T09:17:37.126Z,14.97
2019-01-13T09:20:08.743Z,14.63
2019-01-13T09:22:37.176Z,12.27
2019-01-13T09:25:07.286Z,13.50
2019-01-13T09:27:35.700Z,10.60
2019-01-13T09:30:16.241Z,13.90
2019-01-13T09:32:44.571Z,12.30
2019-01-13T09:35:12.880Z,11.17
2019-01-13T09:37:41.214Z,10.27
2019-01-13T09:40:12.826Z,15.07
2019-01-13T09:42:41.220Z,11.07
2019-01-13T09:45:11.461Z,10.83
2019-01-13T09:47:39.847Z,9.67
2019-01-13T09:50:13.949Z,13.27
2019-01-13T09:52:42.356Z,10.63
2019-01-13T09:55:13.540Z,10.83
2019-01-13T09:57:42.062Z,10.53
2019-01-13T10:00:22.086Z,9.50
2019-01-13T10:02:50.509Z,13.90
2019-01-13T10:05:18.821Z,12.17
2019-01-13T10:07:47.210Z,12.03
2019-01-13T10:10:15.606Z,15.23
2019-01-13T10:12:44.231Z,17.07
2019-01-13T10:15:18.336Z,14.20
2019-01-13T10:17:46.767Z,16.00
2019-01-13T10:20:15.797Z,10.57
2019-01-13T10:22:44.187Z,10.77
2019-01-13T10:25:12.883Z,16.70
2019-01-13T10:27:41.293Z,13.43
2019-01-13T10:30:12.922Z,13.57
2019-01-13T10:32:41.217Z,12.93
2019-01-13T10:35:10.566Z,15.10
2019-01-13T10:37:38.948Z,10.20
2019-01-13T10:40:13.435Z,10.93
2019-01-13T10:42:41.817Z,13.83
2019-01-13T10:45:12.823Z,12.83
2019-01-13T10:47:41.164Z,13.33
2019-01-13T10:50:13.025Z,11.83
2019-01-13T10:52:41.383Z,15.43
2019-01-13T10:55:09.720Z,12.70
2019-01-13T10:57:38.118Z,11.80
2019-01-13T11:00:10.586Z,11.80
2019-01-13T11:02:38.918Z,14.13
2019-01-13T11:05:09.146Z,16.57
2019-01-13T11:07:37.451Z,13.13
2019-01-13T11:10:09.225Z,19.43
2019-01-13T11:12:37.571Z,15.20
2019-01-13T11:15:11.381Z,17.40
2019-01-13T11:17:39.749Z,20.37
2019-01-13T11:20:11.631Z,18.23
2019-01-13T11:22:40.040Z,14.10
2019-01-13T11:25:09.347Z,18.13
2019-01-13T11:27:37.605Z,17.53
2019-01-13T11:30:09.202Z,17.63
2019-01-13T11:32:37.496Z,16.83
2019-01-13T11:35:08.558Z,16.70
2019-01-13T11:37:36.941Z,21.07
2019-01-13T11:40:20.657Z,20.47
2019-01-13T11:42:48.992Z,19.40
2019-01-13T11:45:17.371Z,13.73
2019-01-13T11:47:45.761Z,20.47
2019-01-13T11:50:16.945Z,25.30
2019-01-13T11:52:45.362Z,17.63
2019-01-13T11:55:15.434Z,20.03
2019-01-13T11:57:44.036Z,22.27
2019-01-13T12:00:18.705Z,23.50
2019-01-13T12:02:47.085Z,18.97
2019-01-13T12:05:15.553Z,20.20
2019-01-13T12:07:44.371Z,16.83
2019-01-13T12:10:15.637Z,21.63
2019-01-13T12:12:43.977Z,19.17
2019-01-13T12:15:14.377Z,19.93
2019-01-13T12:17:42.699Z,18.70
2019-01-13T12:20:14.242Z,19.80
2019-01-13T12:22:42.952Z,22.53
2019-01-13T12:25:13.968Z,18.93
2019-01-13T12:27:42.228Z,20.93
2019-01-13T12:30:19.739Z,15.37
2019-01-13T12:32:48.113Z,14.87
2019-01-13T12:35:16.792Z,14.63
2019-01-13T12:37:45.092Z,15.97
2019-01-13T12:40:16.034Z,20.57
2019-01-13T12:42:44.531Z,19.93
2019-01-13T12:45:15.632Z,19.57
2019-01-13T12:47:44.093Z,14.97
2019-01-13T12:50:15.716Z,18.20
2019-01-13T12:52:44.056Z,17.60
2019-01-13T12:55:12.510Z,16.70
2019-01-13T12:57:40.899Z,19.47
2019-01-13T13:00:12.625Z,18.00
2019-01-13T13:02:41.015Z,20.07
2019-01-13T13:05:11.661Z,18.50
2019-01-13T13:07:40.013Z,22.53
2019-01-13T13:10:20.313Z,20.83
2019-01-13T13:12:48.679Z,17.03
2019-01-13T13:15:17.128Z,17.53
2019-01-13T13:17:45.455Z,17.73
2019-01-13T13:20:15.368Z,17.17
2019-01-13T13:22:43.794Z,13.57
2019-01-13T13:25:12.767Z,15.93
2019-01-13T13:27:41.131Z,18.07
2019-01-13T13:30:21.348Z,18.80
2019-01-13T13:32:49.970Z,15.70
2019-01-13T13:35:18.424Z,17.07
2019-01-13T13:37:46.769Z,17.73
2019-01-13T13:40:21.890Z,14.77
2019-01-13T13:42:50.411Z,18.37
2019-01-13T13:45:18.943Z,14.60
2019-01-13T13:47:47.393Z,16.10
2019-01-13T13:50:18.047Z,14.10
2019-01-13T13:52:50.844Z,15.07
2019-01-13T13:55:19.228Z,18.13
2019-01-13T13:57:48.254Z,17.20
2019-01-13T14:00:19.805Z,13.87
2019-01-13T14:02:48.210Z,12.10
2019-01-13T14:05:22.933Z,23.17
2019-01-13T14:07:51.613Z,17.73
2019-01-13T14:10:25.780Z,20.20
2019-01-13T14:12:54.453Z,16.50
2019-01-13T14:15:23.173Z,18.10
2019-01-13T14:17:51.600Z,17.93
2019-01-13T14:20:20.167Z,18.70
2019-01-13T14:22:48.644Z,15.97
2019-01-13T14:25:17.267Z,11.90
2019-01-13T14:27:45.762Z,15.73
2019-01-13T14:30:22.174Z,14.63
2019-01-13T14:32:53.548Z,17.10
2019-01-13T14:35:26.790Z,17.97
2019-01-13T14:37:55.202Z,17.10
2019-01-13T14:40:24.795Z,13.90
2019-01-13T14:42:53.206Z,15.97
2019-01-13T14:45:23.308Z,17.47
2019-01-13T14:47:51.725Z,11.30
2019-01-13T14:50:25.198Z,17.50
2019-01-13T14:52:53.575Z,12.57
2019-01-13T14:55:21.970Z,24.50
2019-01-13T14:57:50.630Z,16.37
2019-01-13T15:00:24.145Z,14.73
2019-01-13T15:02:52.516Z,16.23
2019-01-13T15:05:20.872Z,15.17
2019-01-13T15:07:49.190Z,16.43
2019-01-13T15:10:20.814Z,15.10
2019-01-13T15:12:49.210Z,13.77
2019-01-13T15:15:17.571Z,15.20
2019-01-13T15:17:45.898Z,14.43
2019-01-13T15:20:16.221Z,19.40
2019-01-13T15:22:45.038Z,17.03
2019-01-13T15:25:16.172Z,11.77
2019-01-13T15:27:44.475Z,16.47
2019-01-13T15:30:21.291Z,15.93
2019-01-13T15:32:49.673Z,16.93
2019-01-13T15:35:17.995Z,19.27
2019-01-13T15:37:46.341Z,16.50
2019-01-13T15:40:17.271Z,16.23
2019-01-13T15:42:45.617Z,16.87
2019-01-13T15:45:15.204Z,14.93
2019-01-13T15:47:43.528Z,20.87
2019-01-13T15:50:17.224Z,12.17
2019-01-13T15:52:45.592Z,20.67
2019-01-13T15:55:13.922Z,13.83
2019-01-13T15:57:42.560Z,17.23
2019-01-13T16:00:14.107Z,17.30
2019-01-13T16:02:42.396Z,18.60
2019-01-13T16:05:10.765Z,20.03
2019-01-13T16:07:39.143Z,16.07
2019-01-13T16:10:10.781Z,18.03
2019-01-13T16:12:39.176Z,10.90
2019-01-13T16:15:09.897Z,15.53
2019-01-13T16:17:38.278Z,16.17
2019-01-13T16:20:09.951Z,22.03
2019-01-13T16:22:38.360Z,20.57
2019-01-13T16:25:07.077Z,13.37
2019-01-13T16:27:35.442Z,12.40
2019-01-13T16:30:18.786Z,18.57
2019-01-13T16:32:47.161Z,18.87
2019-01-13T16:35:15.533Z,18.00
2019-01-13T16:37:43.921Z,20.40
2019-01-13T16:40:14.367Z,18.07
2019-01-13T16:42:42.750Z,14.73
2019-01-13T16:45:13.567Z,18.07
2019-01-13T16:47:41.949Z,21.03
2019-01-13T16:50:13.660Z,18.73
2019-01-13T16:52:42.390Z,24.43
2019-01-13T16:55:11.406Z,20.03
2019-01-13T16:57:39.887Z,18.80
2019-01-13T17:00:11.751Z,19.53
2019-01-13T17:02:40.219Z,19.90
2019-01-13T17:05:09.854Z,22.00
2019-01-13T17:07:38.311Z,20.17
2019-01-13T17:10:12.562Z,26.77
2019-01-13T17:12:40.970Z,19.93
2019-01-13T17:15:14.407Z,26.07
2019-01-13T17:17:42.792Z,20.83
2019-01-13T17:20:14.279Z,21.80
2019-01-13T17:22:42.652Z,18.30
2019-01-13T17:25:14.395Z,17.13
2019-01-13T17:27:42.773Z,22.80
2019-01-13T17:30:14.399Z,18.87
2019-01-13T17:32:42.782Z,16.73
2019-01-13T17:35:11.173Z,18.63
2019-01-13T17:37:39.582Z,18.17
2019-01-13T17:40:14.027Z,21.43
2019-01-13T17:42:42.345Z,19.90
2019-01-13T17:45:16.415Z,24.73
2019-01-13T17:47:45.275Z,29.47
2019-01-13T17:50:16.749Z,17.97
2019-01-13T17:52:45.119Z,19.43
2019-01-13T17:55:15.925Z,15.97
2019-01-13T17:57:44.330Z,23.47
2019-01-13T18:00:15.962Z,25.67
2019-01-13T18:02:44.287Z,22.20
2019-01-13T18:05:12.671Z,18.93
2019-01-13T18:07:42.526Z,24.17
2019-01-13T18:10:11.360Z,21.30
2019-01-13T18:12:39.678Z,21.73
2019-01-13T18:15:10.488Z,22.13
2019-01-13T18:17:39.110Z,24.47
2019-01-13T18:20:15.964Z,21.33
2019-01-13T18:22:44.370Z,18.63
2019-01-13T18:25:12.700Z,22.43
2019-01-13T18:27:41.081Z,19.03
2019-01-13T18:30:18.324Z,22.73
2019-01-13T18:32:46.734Z,19.87
2019-01-13T18:35:16.792Z,20.10
2019-01-13T18:37:45.171Z,19.63
2019-01-13T18:40:15.897Z,19.70
2019-01-13T18:42:44.267Z,18.47
2019-01-13T18:45:12.719Z,16.43
2019-01-13T18:47:41.085Z,21.60
2019-01-13T18:50:15.631Z,19.20
2019-01-13T18:52:49.525Z,24.43
2019-01-13T18:55:17.896Z,17.50
2019-01-13T18:57:46.291Z,26.33
2019-01-13T19:00:22.813Z,16.00
2019-01-13T19:02:51.545Z,16.20
2019-01-13T19:05:22.254Z,18.47
2019-01-13T19:07:50.640Z,13.37
2019-01-13T19:10:22.226Z,10.03
2019-01-13T19:12:53.791Z,11.97
2019-01-13T19:15:22.198Z,12.63
2019-01-13T19:17:52.609Z,10.50
2019-01-13T19:20:21.001Z,11.17
2019-01-13T19:22:49.418Z,13.17
2019-01-13T19:25:18.212Z,8.13
2019-01-13T19:27:46.602Z,8.67
2019-01-13T19:30:15.894Z,10.43
2019-01-13T19:32:44.273Z,14.33
2019-01-13T19:35:15.577Z,15.53
2019-01-13T19:37:43.942Z,11.33
2019-01-13T19:40:17.043Z,8.07
2019-01-13T19:42:45.404Z,13.00
2019-01-13T19:45:16.518Z,5.57
2019-01-13T19:47:45.162Z,8.10
2019-01-13T19:50:24.089Z,6.27
2019-01-13T19:52:52.461Z,9.07
2019-01-13T19:55:20.861Z,7.20
2019-01-13T19:57:49.233Z,11.33
2019-01-13T20:00:20.952Z,11.87
2019-01-13T20:02:49.433Z,15.40
2019-01-13T20:05:17.746Z,14.07
2019-01-13T20:07:46.105Z,12.80
2019-01-13T20:10:15.150Z,12.53
2019-01-13T20:12:43.533Z,12.77
2019-01-13T20:15:14.863Z,12.53
2019-01-13T20:17:43.232Z,11.47
2019-01-13T20:20:14.338Z,9.53
2019-01-13T20:22:42.819Z,9.73
2019-01-13T20:25:13.085Z,7.60
2019-01-13T20:27:41.486Z,10.50
2019-01-13T20:30:22.404Z,9.57
2019-01-13T20:32:50.754Z,4.77
2019-01-13T20:35:19.537Z,8.70
2019-01-13T20:37:47.985Z,9.80
2019-01-13T20:40:17.621Z,12.13
2019-01-13T20:42:45.940Z,11.30
2019-01-13T20:45:20.513Z,13.07
2019-01-13T20:47:48.788Z,18.67
2019-01-13T20:50:17.117Z,17.50
2019-01-13T20:52:45.404Z,11.40
2019-01-13T20:55:15.631Z,19.60
2019-01-13T20:57:44.036Z,15.10
2019-01-13T21:00:23.916Z,20.93
2019-01-13T21:02:52.439Z,16.43
2019-01-13T21:05:26.526Z,14.50
2019-01-13T21:07:51.171Z,18.10
2019-01-13T21:10:20.378Z,14.80
2019-01-13T21:12:48.716Z,12.57
2019-01-13T21:15:22.898Z,14.23
2019-01-13T21:17:57.435Z,33.33
2019-01-13T21:20:21.636Z,17.73
2019-01-13T21:22:50.019Z,14.30
2019-01-13T21:25:18.393Z,21.67
2019-01-13T21:27:47.083Z,16.00
2019-01-13T21:30:21.093Z,16.53
2019-01-13T21:32:49.381Z,14.33
2019-01-13T21:35:18.134Z,17.83
2019-01-13T21:37:46.763Z,15.27
2019-01-13T21:40:16.076Z,16.37
2019-01-13T21:42:44.460Z,16.57
2019-01-13T21:45:15.384Z,19.73
2019-01-13T21:47:44.036Z,16.87
2019-01-13T21:50:17.443Z,15.03
2019-01-13T21:52:45.723Z,21.77
2019-01-13T21:55:15.887Z,20.10
2019-01-13T21:57:44.250Z,15.67
2019-01-13T22:00:16.595Z,15.67
2019-01-13T22:02:44.914Z,17.90
2019-01-13T22:05:13.294Z,17.37
2019-01-13T22:07:41.538Z,18.17
2019-01-13T22:10:15.330Z,15.97
2019-01-13T22:12:43.715Z,17.80
2019-01-13T22:15:14.421Z,22.27
2019-01-13T22:17:42.736Z,25.57
2019-01-13T22:20:16.481Z,14.30
2019-01-13T22:22:44.887Z,19.07
2019-01-13T22:25:13.631Z,21.70
2019-01-13T22:27:42.005Z,20.27
2019-01-13T22:30:23.892Z,25.00
2019-01-13T22:32:52.182Z,20.33
2019-01-13T22:35:20.580Z,20.40
2019-01-13T22:37:55.294Z,17.70
2019-01-13T22:40:19.163Z,19.93
2019-01-13T22:42:47.617Z,25.80
2019-01-13T22:45:20.790Z,21.70
2019-01-13T22:47:49.139Z,19.83
2019-01-13T22:50:18.215Z,24.87
2019-01-13T22:52:46.591Z,21.30
2019-01-13T22:55:14.983Z,30.07
2019-01-13T22:57:43.283Z,29.57
2019-01-13T23:00:42.070Z,31.30
2019-01-13T23:03:10.755Z,23.23
2019-01-13T23:05:39.168Z,25.73
2019-01-13T23:08:07.541Z,25.17
2019-01-13T23:10:35.916Z,18.77
2019-01-13T23:13:04.234Z,25.80
2019-01-13T23:15:32.590Z,29.00
2019-01-13T23:18:00.886Z,25.13
2019-01-13T23:20:29.262Z,29.13
2019-01-13T23:22:57.584Z,23.10
2019-01-13T23:25:26.242Z,23.43
2019-01-13T23:27:54.616Z,19.60
2019-01-13T23:30:22.932Z,24.27
2019-01-13T23:32:51.296Z,25.83
2019-01-13T23:35:19.580Z,26.50
2019-01-13T23:37:47.956Z,29.00
2019-01-13T23:40:16.338Z,19.37
2019-01-13T23:42:44.739Z,31.40
2019-01-13T23:45:13.110Z,27.67
2019-01-13T23:47:41.476Z,23.63
2019-01-13T23:50:09.864Z,28.77
2019-01-13T23:52:38.229Z,25.37
2019-01-13T23:55:06.604Z,22.77
2019-01-13T23:57:34.967Z,30.40
